createdAt,value
2023-03-16T00:00:44.080Z,97829.78
2023-03-16T00:05:50.131Z,97846.16
2023-03-16T00:10:54.533Z,97841.97
2023-03-16T00:16:00.174Z,97825.41
2023-03-16T00:21:05.882Z,97835.00
2023-03-16T00:26:10.656Z,97821.97
2023-03-16T00:31:14.933Z,97836.72
2023-03-16T00:36:20.312Z,97832.47
2023-03-16T00:41:24.077Z,97836.72
2023-03-16T00:46:28.066Z,97854.06
2023-03-16T00:51:34.041Z,97859.16
2023-03-16T00:56:37.546Z,97848.13
2023-03-16T01:01:41.975Z,97852.47
2023-03-16T01:06:47.477Z,97846.47
2023-03-16T01:11:54.013Z,97856.66
2023-03-16T01:16:57.909Z,97859.25
2023-03-16T01:22:04.190Z,97870.44
2023-03-16T01:27:10.378Z,97882.56
2023-03-16T01:32:15.208Z,97886.88
2023-03-16T01:37:20.597Z,97884.22
2023-03-16T01:42:48.182Z,97886.00
2023-03-16T01:47:52.152Z,97898.06
2023-03-16T01:52:57.213Z,97895.34
2023-03-16T01:58:01.813Z,97900.47
2023-03-16T02:03:09.520Z,97897.06
2023-03-16T02:08:23.033Z,97898.81
2023-03-16T02:13:29.704Z,97903.94
2023-03-16T02:18:33.846Z,97896.97
2023-03-16T02:23:39.370Z,97906.53
2023-03-16T02:28:51.178Z,97917.72
2023-03-16T02:33:58.056Z,97918.66
2023-03-16T02:39:01.616Z,97928.16
2023-03-16T02:44:14.822Z,97929.13
2023-03-16T02:49:25.063Z,97928.38
2023-03-16T02:54:28.612Z,97928.44
2023-03-16T02:59:32.370Z,97929.38
2023-03-16T03:04:37.204Z,97931.13
2023-03-16T03:09:43.671Z,97937.13
2023-03-16T03:14:47.372Z,97941.50
2023-03-16T03:19:55.783Z,97944.91
2023-03-16T03:24:59.183Z,97934.50
2023-03-16T03:30:02.829Z,97940.53
2023-03-16T03:35:09.199Z,97953.47
2023-03-16T03:40:15.664Z,97954.34
2023-03-16T03:45:21.661Z,97969.84
2023-03-16T03:50:26.824Z,97967.28
2023-03-16T03:55:50.938Z,97975.91
2023-03-16T04:00:54.467Z,97975.00
2023-03-16T04:05:59.738Z,97977.63
2023-03-16T04:11:03.552Z,97980.25
2023-03-16T04:16:07.859Z,97983.75
2023-03-16T04:21:19.478Z,97982.00
2023-03-16T04:26:25.683Z,97990.66
2023-03-16T04:31:30.521Z,97997.63
2023-03-16T04:36:36.205Z,98007.16
2023-03-16T04:41:39.770Z,98019.31
2023-03-16T04:46:48.946Z,98021.88
2023-03-16T04:51:55.595Z,98026.28
2023-03-16T04:56:59.836Z,98036.66
2023-03-16T05:02:13.077Z,98047.13
2023-03-16T05:07:18.514Z,98052.31
2023-03-16T05:12:26.726Z,98054.03
2023-03-16T05:17:36.058Z,98067.06
2023-03-16T05:22:44.465Z,98074.84
2023-03-16T05:27:55.474Z,98079.19
2023-03-16T05:33:09.218Z,98082.69
2023-03-16T05:38:16.000Z,98095.72
2023-03-16T05:43:21.204Z,98111.25
2023-03-16T05:48:27.591Z,98110.38
2023-03-16T05:53:36.640Z,98115.59
2023-03-16T05:58:46.976Z,98126.00
2023-03-16T06:03:52.500Z,98124.31
2023-03-16T06:09:01.382Z,98137.25
2023-03-16T06:14:05.617Z,98138.16
2023-03-16T06:19:09.545Z,98140.75
2023-03-16T06:24:14.734Z,98149.34
2023-03-16T06:29:18.254Z,98155.41
2023-03-16T06:34:22.738Z,98156.16
2023-03-16T06:39:27.657Z,98149.25
2023-03-16T06:44:31.459Z,98157.03
2023-03-16T06:49:47.020Z,98161.34
2023-03-16T06:54:58.602Z,98175.16
2023-03-16T07:00:04.858Z,98179.47
2023-03-16T07:05:08.912Z,98174.19
2023-03-16T07:10:15.725Z,98185.41
2023-03-16T07:15:19.854Z,98193.19
2023-03-16T07:20:23.873Z,98195.00
2023-03-16T07:25:28.878Z,98207.06
2023-03-16T07:30:32.830Z,98210.47
2023-03-16T07:35:37.023Z,98217.38
2023-03-16T07:40:42.805Z,98229.53
2023-03-16T07:45:54.490Z,98232.09
2023-03-16T07:50:58.110Z,98234.69
2023-03-16T07:56:03.529Z,98245.84
2023-03-16T08:01:11.021Z,98248.47
2023-03-16T08:06:15.055Z,98248.47
2023-03-16T08:11:23.861Z,98251.94
2023-03-16T08:16:39.615Z,98253.66
2023-03-16T08:22:00.344Z,98252.81
2023-03-16T08:27:11.132Z,98251.03
2023-03-16T08:32:18.302Z,98270.03
2023-03-16T08:37:24.153Z,98270.84
2023-03-16T08:42:32.612Z,98282.16
2023-03-16T08:47:41.180Z,98289.09
2023-03-16T08:52:46.045Z,98294.28
2023-03-16T08:57:51.139Z,98304.63
2023-03-16T09:02:55.073Z,98307.28
2023-03-16T09:07:58.870Z,98317.66
2023-03-16T09:13:03.815Z,98316.81
2023-03-16T09:18:07.748Z,98320.28
2023-03-16T09:23:11.763Z,98321.97
2023-03-16T09:28:18.772Z,98329.75
2023-03-16T09:33:24.460Z,98340.97
2023-03-16T09:38:28.808Z,98342.75
2023-03-16T09:43:50.187Z,98349.66
2023-03-16T09:48:55.789Z,98348.78
2023-03-16T09:54:03.145Z,98356.53
2023-03-16T09:59:14.127Z,98357.38
2023-03-16T10:04:32.458Z,98363.38
2023-03-16T10:09:39.693Z,98365.19
2023-03-16T10:14:51.145Z,98372.94
2023-03-16T10:19:58.196Z,98373.88
2023-03-16T10:25:09.152Z,98382.53
2023-03-16T10:30:23.470Z,98378.22
2023-03-16T10:35:36.853Z,98379.06
2023-03-16T10:40:41.053Z,98375.56
2023-03-16T10:45:47.658Z,98376.41
2023-03-16T10:50:53.694Z,98380.78
2023-03-16T10:56:00.254Z,98388.59
2023-03-16T11:01:12.313Z,98376.47
2023-03-16T11:06:22.651Z,98385.06
2023-03-16T11:11:28.932Z,98379.91
2023-03-16T11:16:39.849Z,98383.41
2023-03-16T11:21:51.540Z,98388.66
2023-03-16T11:26:57.242Z,98393.81
2023-03-16T11:32:06.135Z,98405.03
2023-03-16T11:37:22.700Z,98397.25
2023-03-16T11:42:33.216Z,98410.22
2023-03-16T11:48:27.781Z,98410.22
2023-03-16T11:53:48.507Z,98421.47
2023-03-16T11:59:02.692Z,98419.69
2023-03-16T12:04:20.672Z,98424.03
2023-03-16T12:09:55.975Z,98431.81
2023-03-16T12:15:18.945Z,98438.72
2023-03-16T12:20:26.102Z,98440.41
2023-03-16T12:25:33.589Z,98441.28
2023-03-16T12:30:44.821Z,98442.94
2023-03-16T12:35:53.230Z,98453.31
2023-03-16T12:41:09.686Z,98455.88
2023-03-16T12:46:15.667Z,98454.09
2023-03-16T12:51:19.311Z,98458.38
2023-03-16T12:56:31.554Z,98465.28
2023-03-16T13:01:42.560Z,98461.91
2023-03-16T13:06:49.538Z,98483.50
2023-03-16T13:11:54.481Z,98483.38
2023-03-16T13:17:06.497Z,98489.31
2023-03-16T13:22:27.128Z,98494.44
2023-03-16T13:27:35.393Z,98503.88
2023-03-16T13:32:41.066Z,98515.97
2023-03-16T13:37:45.582Z,98512.63
2023-03-16T13:42:53.145Z,98517.84
2023-03-16T13:47:56.947Z,98521.94
2023-03-16T13:53:04.589Z,98531.53
2023-03-16T13:58:22.177Z,98529.03
2023-03-16T14:03:33.097Z,98531.59
2023-03-16T14:14:18.824Z,98543.72
2023-03-16T14:19:33.219Z,98542.69
2023-03-16T14:24:40.798Z,98551.41
2023-03-16T14:35:26.429Z,98561.69
2023-03-16T14:40:33.367Z,98568.56
2023-03-16T14:45:39.770Z,98573.72
2023-03-16T14:51:19.921Z,98581.47
2023-03-16T14:56:53.724Z,98589.91
2023-03-16T15:02:41.931Z,98591.72
2023-03-16T15:07:54.888Z,98593.41
2023-03-16T15:13:04.960Z,98603.69
2023-03-16T15:18:12.975Z,98608.84
2023-03-16T15:23:19.215Z,98624.47
2023-03-16T15:28:25.360Z,98635.53
2023-03-16T15:33:31.389Z,98637.25
2023-03-16T15:38:39.892Z,98648.56
2023-03-16T15:44:01.172Z,98656.19
2023-03-16T15:49:53.276Z,98670.81
2023-03-16T15:55:21.681Z,98669.97
2023-03-16T16:00:59.403Z,98676.78
2023-03-16T16:06:28.120Z,98685.28
2023-03-16T16:12:04.329Z,98698.44
2023-03-16T16:17:50.467Z,98706.00
2023-03-16T16:23:03.053Z,98721.59
2023-03-16T16:28:23.486Z,98733.50
2023-03-16T16:33:30.675Z,98732.78
2023-03-16T16:38:45.389Z,98740.50
2023-03-16T16:43:56.180Z,98749.13
2023-03-16T16:49:34.807Z,98750.81
2023-03-16T16:54:43.481Z,98758.47
2023-03-16T17:00:34.650Z,98768.66
2023-03-16T17:26:45.872Z,98819.66
2023-03-16T17:31:50.347Z,98823.78
2023-03-16T17:36:55.909Z,98825.44
2023-03-16T17:42:04.344Z,98832.34
2023-03-16T17:47:17.536Z,98840.03
2023-03-16T17:52:27.549Z,98850.38
2023-03-16T17:57:34.910Z,98856.28
2023-03-16T18:02:45.615Z,98862.31
2023-03-16T18:07:50.038Z,98856.38
2023-03-16T18:12:59.914Z,98858.69
2023-03-16T18:18:06.011Z,98867.13
2023-03-16T18:23:17.395Z,98870.66
2023-03-16T18:28:26.277Z,98880.81
2023-03-16T18:33:33.976Z,98877.31
2023-03-16T18:38:48.225Z,98892.47
2023-03-16T18:43:57.296Z,98892.38
2023-03-16T18:49:05.049Z,98899.31
2023-03-16T18:54:23.801Z,98899.38
2023-03-16T18:59:35.287Z,98906.03
2023-03-16T19:05:05.796Z,98909.53
2023-03-16T19:10:27.087Z,98923.41
2023-03-16T19:15:44.808Z,98931.78
2023-03-16T19:20:59.894Z,98939.59
2023-03-16T19:26:29.356Z,98939.69
2023-03-16T19:32:00.186Z,98948.75
2023-03-16T19:42:48.802Z,98944.63
2023-03-16T19:47:59.408Z,98946.94
2023-03-16T19:53:16.966Z,98959.69
2023-03-16T19:58:37.608Z,98963.09
2023-03-16T20:03:55.430Z,98963.22
2023-03-16T20:09:12.481Z,98977.78
2023-03-16T20:14:23.040Z,98987.41
2023-03-16T20:19:31.675Z,98982.09
2023-03-16T20:24:38.667Z,98991.50
2023-03-16T20:29:44.444Z,98992.56
2023-03-16T20:34:53.909Z,98991.41
2023-03-16T20:40:00.247Z,98993.13
2023-03-16T20:45:04.748Z,99003.53
2023-03-16T20:50:22.846Z,99007.03
2023-03-16T20:55:29.404Z,99006.78
2023-03-16T21:00:35.440Z,99013.00
2023-03-16T21:05:43.686Z,99008.41
2023-03-16T21:10:53.918Z,99009.38
2023-03-16T21:16:04.035Z,99008.50
2023-03-16T21:21:15.760Z,99005.09
2023-03-16T21:26:24.187Z,99014.34
2023-03-16T21:31:29.323Z,99016.03
2023-03-16T21:36:35.596Z,99026.53
2023-03-16T21:41:40.218Z,99028.47
2023-03-16T21:46:43.948Z,99031.75
2023-03-16T21:51:53.335Z,99021.25
2023-03-16T21:56:57.576Z,99028.78
2023-03-16T22:02:02.478Z,99040.06
2023-03-16T22:07:14.104Z,99039.75
2023-03-16T22:12:18.849Z,99038.75
2023-03-16T22:17:24.234Z,99053.63
2023-03-16T22:22:34.596Z,99042.91
2023-03-16T22:27:39.195Z,99046.63
2023-03-16T22:32:44.177Z,99044.88
2023-03-16T22:37:50.623Z,99046.47
2023-03-16T22:42:55.954Z,99049.94
2023-03-16T22:48:03.839Z,99047.28
2023-03-16T22:53:14.626Z,99053.28
2023-03-16T22:58:30.942Z,99053.13
2023-03-16T23:03:35.851Z,99059.94
2023-03-16T23:08:43.284Z,99055.66
2023-03-16T23:13:47.873Z,99060.03
2023-03-16T23:18:54.256Z,99066.06
2023-03-16T23:24:04.684Z,99078.28
2023-03-16T23:29:09.534Z,99076.16
2023-03-16T23:34:15.098Z,99073.78
2023-03-16T23:39:21.636Z,99074.69
2023-03-16T23:44:29.222Z,99073.75
2023-03-16T23:49:37.884Z,99082.47
2023-03-16T23:54:43.465Z,99079.00
2023-03-16T23:59:49.159Z,99086.88
